sensor_id;sensor_type;location;lat;lon;timestamp;P1;durP1;ratioP1;P2;durP2;ratioP2
14484;SDS011;7328;50.812;4.422;2022-07-11T00:00:12;3.90;;;2.33;;
14484;SDS011;7328;50.812;4.422;2022-07-11T00:02:42;3.67;;;2.17;;
14484;SDS011;7328;50.812;4.422;2022-07-11T00:05:08;4.40;;;2.40;;
14484;SDS011;7328;50.812;4.422;2022-07-11T00:07:35;2.37;;;1.60;;
14484;SDS011;7328;50.812;4.422;2022-07-11T00:10:02;2.13;;;1.93;;
14484;SDS011;7328;50.812;4.422;2022-07-11T00:12:28;2.43;;;1.77;;
14484;SDS011;7328;50.812;4.422;2022-07-11T00:14:54;1.97;;;1.87;;
14484;SDS011;7328;50.812;4.422;2022-07-11T00:17:21;3.87;;;2.13;;
14484;SDS011;7328;50.812;4.422;2022-07-11T00:19:48;1.90;;;1.80;;
14484;SDS011;7328;50.812;4.422;2022-07-11T00:22:14;2.20;;;2.10;;
14484;SDS011;7328;50.812;4.422;2022-07-11T00:24:40;3.13;;;2.07;;
14484;SDS011;7328;50.812;4.422;2022-07-11T00:27:06;4.37;;;2.07;;
14484;SDS011;7328;50.812;4.422;2022-07-11T00:29:32;2.03;;;1.93;;
14484;SDS011;7328;50.812;4.422;2022-07-11T00:31:58;1.90;;;1.70;;
14484;SDS011;7328;50.812;4.422;2022-07-11T00:34:24;3.33;;;1.77;;
14484;SDS011;7328;50.812;4.422;2022-07-11T00:36:50;2.10;;;2.00;;
14484;SDS011;7328;50.812;4.422;2022-07-11T00:39:16;2.20;;;1.77;;
14484;SDS011;7328;50.812;4.422;2022-07-11T00:41:42;2.07;;;1.97;;
14484;SDS011;7328;50.812;4.422;2022-07-11T00:44:08;2.73;;;2.50;;
14484;SDS011;7328;50.812;4.422;2022-07-11T00:46:34;4.53;;;1.80;;
14484;SDS011;7328;50.812;4.422;2022-07-11T00:49:00;5.30;;;2.20;;
14484;SDS011;7328;50.812;4.422;2022-07-11T00:51:26;3.50;;;2.23;;
14484;SDS011;7328;50.812;4.422;2022-07-11T00:53:54;2.80;;;2.57;;
14484;SDS011;7328;50.812;4.422;2022-07-11T00:56:22;1.67;;;1.57;;
14484;SDS011;7328;50.812;4.422;2022-07-11T00:58:50;3.17;;;1.93;;
14484;SDS011;7328;50.812;4.422;2022-07-11T01:01:17;4.77;;;2.13;;
14484;SDS011;7328;50.812;4.422;2022-07-11T01:03:43;3.13;;;2.00;;
14484;SDS011;7328;50.812;4.422;2022-07-11T01:06:11;2.63;;;2.43;;
14484;SDS011;7328;50.812;4.422;2022-07-11T01:08:38;3.93;;;1.87;;
14484;SDS011;7328;50.812;4.422;2022-07-11T01:11:05;3.30;;;2.27;;
14484;SDS011;7328;50.812;4.422;2022-07-11T01:13:37;2.83;;;2.60;;
14484;SDS011;7328;50.812;4.422;2022-07-11T01:16:11;6.23;;;2.70;;
14484;SDS011;7328;50.812;4.422;2022-07-11T01:18:51;6.47;;;2.43;;
14484;SDS011;7328;50.812;4.422;2022-07-11T01:23:48;1.53;;;1.43;;
14484;SDS011;7328;50.812;4.422;2022-07-11T01:26:14;3.17;;;2.30;;
14484;SDS011;7328;50.812;4.422;2022-07-11T01:28:41;4.10;;;2.67;;
14484;SDS011;7328;50.812;4.422;2022-07-11T01:31:08;3.63;;;2.17;;
14484;SDS011;7328;50.812;4.422;2022-07-11T01:33:33;2.60;;;2.03;;
14484;SDS011;7328;50.812;4.422;2022-07-11T01:36:00;2.20;;;1.90;;
14484;SDS011;7328;50.812;4.422;2022-07-11T01:38:27;3.83;;;2.10;;
14484;SDS011;7328;50.812;4.422;2022-07-11T01:40:53;2.37;;;1.97;;
14484;SDS011;7328;50.812;4.422;2022-07-11T01:43:19;2.70;;;1.90;;
14484;SDS011;7328;50.812;4.422;2022-07-11T01:45:45;5.50;;;3.37;;
14484;SDS011;7328;50.812;4.422;2022-07-11T01:48:10;3.50;;;2.40;;
14484;SDS011;7328;50.812;4.422;2022-07-11T01:50:36;2.90;;;2.40;;
14484;SDS011;7328;50.812;4.422;2022-07-11T01:53:02;3.43;;;2.37;;
14484;SDS011;7328;50.812;4.422;2022-07-11T01:55:28;2.17;;;2.07;;
14484;SDS011;7328;50.812;4.422;2022-07-11T01:57:54;8.77;;;2.70;;
14484;SDS011;7328;50.812;4.422;2022-07-11T02:00:19;2.70;;;1.97;;
14484;SDS011;7328;50.812;4.422;2022-07-11T02:02:45;2.57;;;2.37;;
14484;SDS011;7328;50.812;4.422;2022-07-11T02:05:11;2.33;;;2.00;;
14484;SDS011;7328;50.812;4.422;2022-07-11T02:07:37;6.30;;;2.57;;
14484;SDS011;7328;50.812;4.422;2022-07-11T02:10:21;2.10;;;2.00;;
14484;SDS011;7328;50.812;4.422;2022-07-11T02:12:47;3.30;;;2.00;;
14484;SDS011;7328;50.812;4.422;2022-07-11T02:15:13;2.63;;;2.03;;
14484;SDS011;7328;50.812;4.422;2022-07-11T02:17:38;3.43;;;3.00;;
14484;SDS011;7328;50.812;4.422;2022-07-11T02:20:04;3.03;;;2.70;;
14484;SDS011;7328;50.812;4.422;2022-07-11T02:22:30;3.43;;;2.30;;
14484;SDS011;7328;50.812;4.422;2022-07-11T02:24:59;4.50;;;1.80;;
14484;SDS011;7328;50.812;4.422;2022-07-11T02:27:25;2.50;;;2.30;;
14484;SDS011;7328;50.812;4.422;2022-07-11T02:29:50;2.57;;;2.37;;
14484;SDS011;7328;50.812;4.422;2022-07-11T02:32:16;2.23;;;2.13;;
14484;SDS011;7328;50.812;4.422;2022-07-11T02:34:42;3.27;;;2.27;;
14484;SDS011;7328;50.812;4.422;2022-07-11T02:37:08;2.73;;;2.53;;
14484;SDS011;7328;50.812;4.422;2022-07-11T02:39:34;3.90;;;2.60;;
14484;SDS011;7328;50.812;4.422;2022-07-11T02:41:59;2.83;;;2.57;;
14484;SDS011;7328;50.812;4.422;2022-07-11T02:44:25;5.43;;;2.47;;
14484;SDS011;7328;50.812;4.422;2022-07-11T02:46:51;2.67;;;2.10;;
14484;SDS011;7328;50.812;4.422;2022-07-11T02:49:17;2.53;;;2.33;;
14484;SDS011;7328;50.812;4.422;2022-07-11T02:51:42;2.57;;;2.37;;
14484;SDS011;7328;50.812;4.422;2022-07-11T02:54:08;2.57;;;2.47;;
14484;SDS011;7328;50.812;4.422;2022-07-11T02:56:34;2.60;;;2.40;;
14484;SDS011;7328;50.812;4.422;2022-07-11T02:59:00;13.60;;;3.20;;
14484;SDS011;7328;50.812;4.422;2022-07-11T03:01:25;2.80;;;2.60;;
14484;SDS011;7328;50.812;4.422;2022-07-11T03:03:52;3.10;;;2.73;;
14484;SDS011;7328;50.812;4.422;2022-07-11T03:06:17;2.60;;;2.40;;
14484;SDS011;7328;50.812;4.422;2022-07-11T03:08:43;2.17;;;2.07;;
14484;SDS011;7328;50.812;4.422;2022-07-11T03:11:09;2.37;;;2.13;;
14484;SDS011;7328;50.812;4.422;2022-07-11T03:13:35;2.50;;;2.30;;
14484;SDS011;7328;50.812;4.422;2022-07-11T03:16:00;2.60;;;2.47;;
14484;SDS011;7328;50.812;4.422;2022-07-11T03:18:27;2.93;;;2.70;;
14484;SDS011;7328;50.812;4.422;2022-07-11T03:20:53;3.93;;;2.77;;
14484;SDS011;7328;50.812;4.422;2022-07-11T03:23:19;2.90;;;2.70;;
14484;SDS011;7328;50.812;4.422;2022-07-11T03:25:44;3.03;;;2.77;;
14484;SDS011;7328;50.812;4.422;2022-07-11T03:28:10;3.50;;;2.90;;
14484;SDS011;7328;50.812;4.422;2022-07-11T03:30:37;3.63;;;2.33;;
14484;SDS011;7328;50.812;4.422;2022-07-11T03:33:03;3.07;;;2.67;;
14484;SDS011;7328;50.812;4.422;2022-07-11T03:35:28;5.27;;;2.90;;
14484;SDS011;7328;50.812;4.422;2022-07-11T03:38:07;3.40;;;3.10;;
14484;SDS011;7328;50.812;4.422;2022-07-11T03:40:36;3.40;;;3.07;;
14484;SDS011;7328;50.812;4.422;2022-07-11T03:43:02;3.10;;;2.90;;
14484;SDS011;7328;50.812;4.422;2022-07-11T03:45:28;2.93;;;2.70;;
14484;SDS011;7328;50.812;4.422;2022-07-11T03:47:54;4.73;;;3.17;;
14484;SDS011;7328;50.812;4.422;2022-07-11T03:50:20;2.17;;;2.07;;
14484;SDS011;7328;50.812;4.422;2022-07-11T03:52:46;3.47;;;3.23;;
14484;SDS011;7328;50.812;4.422;2022-07-11T03:55:12;3.70;;;2.77;;
14484;SDS011;7328;50.812;4.422;2022-07-11T03:57:37;3.00;;;2.77;;
14484;SDS011;7328;50.812;4.422;2022-07-11T04:00:04;3.33;;;2.53;;
14484;SDS011;7328;50.812;4.422;2022-07-11T04:02:32;4.00;;;3.70;;
14484;SDS011;7328;50.812;4.422;2022-07-11T04:04:58;4.20;;;3.13;;
14484;SDS011;7328;50.812;4.422;2022-07-11T04:07:24;3.17;;;2.97;;
14484;SDS011;7328;50.812;4.422;2022-07-11T04:09:49;3.57;;;3.27;;
14484;SDS011;7328;50.812;4.422;2022-07-11T04:12:16;3.10;;;2.80;;
14484;SDS011;7328;50.812;4.422;2022-07-11T04:14:43;3.23;;;2.90;;
14484;SDS011;7328;50.812;4.422;2022-07-11T04:17:09;3.30;;;3.10;;
14484;SDS011;7328;50.812;4.422;2022-07-11T04:19:35;3.10;;;2.80;;
14484;SDS011;7328;50.812;4.422;2022-07-11T04:22:01;5.20;;;2.87;;
14484;SDS011;7328;50.812;4.422;2022-07-11T04:24:29;4.10;;;3.80;;
14484;SDS011;7328;50.812;4.422;2022-07-11T04:26:55;3.13;;;2.93;;
14484;SDS011;7328;50.812;4.422;2022-07-11T04:29:21;4.57;;;2.93;;
14484;SDS011;7328;50.812;4.422;2022-07-11T04:31:49;4.63;;;4.13;;
14484;SDS011;7328;50.812;4.422;2022-07-11T04:34:17;4.37;;;3.97;;
14484;SDS011;7328;50.812;4.422;2022-07-11T04:36:44;2.80;;;2.67;;
14484;SDS011;7328;50.812;4.422;2022-07-11T04:39:10;8.83;;;3.70;;
14484;SDS011;7328;50.812;4.422;2022-07-11T04:41:36;5.73;;;5.30;;
14484;SDS011;7328;50.812;4.422;2022-07-11T04:44:01;3.87;;;3.57;;
14484;SDS011;7328;50.812;4.422;2022-07-11T04:46:27;6.17;;;4.07;;
14484;SDS011;7328;50.812;4.422;2022-07-11T04:48:54;4.37;;;3.53;;
14484;SDS011;7328;50.812;4.422;2022-07-11T04:51:20;4.47;;;4.13;;
14484;SDS011;7328;50.812;4.422;2022-07-11T04:53:46;3.77;;;3.00;;
14484;SDS011;7328;50.812;4.422;2022-07-11T04:56:12;4.37;;;4.07;;
14484;SDS011;7328;50.812;4.422;2022-07-11T04:58:39;4.07;;;3.70;;
14484;SDS011;7328;50.812;4.422;2022-07-11T05:01:05;5.03;;;4.53;;
14484;SDS011;7328;50.812;4.422;2022-07-11T05:03:31;6.70;;;5.00;;
14484;SDS011;7328;50.812;4.422;2022-07-11T05:05:59;4.10;;;3.80;;
14484;SDS011;7328;50.812;4.422;2022-07-11T05:08:25;4.07;;;3.87;;
14484;SDS011;7328;50.812;4.422;2022-07-11T05:10:51;6.00;;;5.50;;
14484;SDS011;7328;50.812;4.422;2022-07-11T05:13:17;5.73;;;5.03;;
14484;SDS011;7328;50.812;4.422;2022-07-11T05:15:43;5.53;;;4.67;;
14484;SDS011;7328;50.812;4.422;2022-07-11T05:18:09;8.63;;;5.17;;
14484;SDS011;7328;50.812;4.422;2022-07-11T05:20:36;9.43;;;5.20;;
14484;SDS011;7328;50.812;4.422;2022-07-11T05:23:02;5.87;;;5.37;;
14484;SDS011;7328;50.812;4.422;2022-07-11T05:25:28;6.30;;;5.70;;
14484;SDS011;7328;50.812;4.422;2022-07-11T05:27:54;11.47;;;7.63;;
14484;SDS011;7328;50.812;4.422;2022-07-11T05:30:20;13.17;;;7.40;;
14484;SDS011;7328;50.812;4.422;2022-07-11T05:32:45;10.67;;;8.70;;
14484;SDS011;7328;50.812;4.422;2022-07-11T05:35:11;17.10;;;10.43;;
14484;SDS011;7328;50.812;4.422;2022-07-11T05:37:37;12.77;;;10.60;;
14484;SDS011;7328;50.812;4.422;2022-07-11T05:40:03;11.63;;;10.53;;
14484;SDS011;7328;50.812;4.422;2022-07-11T05:42:33;14.97;;;10.93;;
14484;SDS011;7328;50.812;4.422;2022-07-11T05:45:00;12.70;;;11.50;;
14484;SDS011;7328;50.812;4.422;2022-07-11T05:47:25;12.03;;;10.70;;
14484;SDS011;7328;50.812;4.422;2022-07-11T05:49:51;11.80;;;10.40;;
14484;SDS011;7328;50.812;4.422;2022-07-11T05:52:17;13.97;;;11.27;;
14484;SDS011;7328;50.812;4.422;2022-07-11T05:54:43;14.03;;;12.63;;
14484;SDS011;7328;50.812;4.422;2022-07-11T05:57:08;15.97;;;10.77;;
14484;SDS011;7328;50.812;4.422;2022-07-11T05:59:34;13.10;;;11.70;;
14484;SDS011;7328;50.812;4.422;2022-07-11T06:02:01;13.30;;;10.93;;
14484;SDS011;7328;50.812;4.422;2022-07-11T06:04:27;16.43;;;11.87;;
14484;SDS011;7328;50.812;4.422;2022-07-11T06:06:53;11.97;;;10.77;;
14484;SDS011;7328;50.812;4.422;2022-07-11T06:09:19;12.93;;;11.53;;
14484;SDS011;7328;50.812;4.422;2022-07-11T06:11:45;18.50;;;13.33;;
14484;SDS011;7328;50.812;4.422;2022-07-11T06:14:10;14.77;;;11.60;;
14484;SDS011;7328;50.812;4.422;2022-07-11T06:16:36;12.73;;;10.47;;
14484;SDS011;7328;50.812;4.422;2022-07-11T06:19:02;14.40;;;10.90;;
14484;SDS011;7328;50.812;4.422;2022-07-11T06:21:28;10.40;;;8.03;;
14484;SDS011;7328;50.812;4.422;2022-07-11T06:23:54;8.83;;;7.30;;
14484;SDS011;7328;50.812;4.422;2022-07-11T06:26:20;13.23;;;7.53;;
14484;SDS011;7328;50.812;4.422;2022-07-11T06:28:46;6.90;;;6.17;;
14484;SDS011;7328;50.812;4.422;2022-07-11T06:31:12;12.47;;;6.87;;
14484;SDS011;7328;50.812;4.422;2022-07-11T06:33:38;11.27;;;6.07;;
14484;SDS011;7328;50.812;4.422;2022-07-11T06:36:05;6.57;;;5.97;;
14484;SDS011;7328;50.812;4.422;2022-07-11T06:38:31;9.57;;;6.13;;
14484;SDS011;7328;50.812;4.422;2022-07-11T06:40:57;7.67;;;5.90;;
14484;SDS011;7328;50.812;4.422;2022-07-11T06:43:24;10.73;;;6.87;;
14484;SDS011;7328;50.812;4.422;2022-07-11T06:45:50;6.90;;;6.00;;
14484;SDS011;7328;50.812;4.422;2022-07-11T06:48:16;8.43;;;6.90;;
14484;SDS011;7328;50.812;4.422;2022-07-11T06:50:43;7.33;;;6.57;;
14484;SDS011;7328;50.812;4.422;2022-07-11T06:53:09;14.17;;;6.17;;
14484;SDS011;7328;50.812;4.422;2022-07-11T06:55:34;6.67;;;5.90;;
14484;SDS011;7328;50.812;4.422;2022-07-11T06:58:01;12.73;;;5.77;;
14484;SDS011;7328;50.812;4.422;2022-07-11T07:00:27;14.97;;;8.17;;
14484;SDS011;7328;50.812;4.422;2022-07-11T07:02:59;9.10;;;5.73;;
14484;SDS011;7328;50.812;4.422;2022-07-11T07:05:25;10.00;;;6.33;;
14484;SDS011;7328;50.812;4.422;2022-07-11T07:07:52;5.90;;;5.37;;
14484;SDS011;7328;50.812;4.422;2022-07-11T07:10:21;14.63;;;6.60;;
14484;SDS011;7328;50.812;4.422;2022-07-11T07:12:55;6.30;;;5.03;;
14484;SDS011;7328;50.812;4.422;2022-07-11T07:15:21;10.57;;;5.17;;
14484;SDS011;7328;50.812;4.422;2022-07-11T07:17:47;8.60;;;5.17;;
14484;SDS011;7328;50.812;4.422;2022-07-11T07:20:15;8.33;;;5.30;;
14484;SDS011;7328;50.812;4.422;2022-07-11T07:22:41;7.97;;;5.93;;
14484;SDS011;7328;50.812;4.422;2022-07-11T07:25:07;6.40;;;5.80;;
14484;SDS011;7328;50.812;4.422;2022-07-11T07:27:39;10.13;;;5.97;;
14484;SDS011;7328;50.812;4.422;2022-07-11T07:30:08;6.87;;;6.17;;
14484;SDS011;7328;50.812;4.422;2022-07-11T07:32:35;6.80;;;5.67;;
14484;SDS011;7328;50.812;4.422;2022-07-11T07:35:01;7.90;;;6.10;;
14484;SDS011;7328;50.812;4.422;2022-07-11T07:37:27;7.00;;;5.70;;
14484;SDS011;7328;50.812;4.422;2022-07-11T07:39:53;7.27;;;6.43;;
14484;SDS011;7328;50.812;4.422;2022-07-11T07:42:19;8.27;;;6.63;;
14484;SDS011;7328;50.812;4.422;2022-07-11T07:44:44;7.07;;;5.33;;
14484;SDS011;7328;50.812;4.422;2022-07-11T07:47:10;7.67;;;6.93;;
14484;SDS011;7328;50.812;4.422;2022-07-11T07:49:36;11.67;;;6.73;;
14484;SDS011;7328;50.812;4.422;2022-07-11T07:52:02;7.20;;;6.60;;
14484;SDS011;7328;50.812;4.422;2022-07-11T07:54:28;6.60;;;5.83;;
14484;SDS011;7328;50.812;4.422;2022-07-11T07:56:53;6.87;;;5.77;;
14484;SDS011;7328;50.812;4.422;2022-07-11T07:59:19;7.07;;;6.37;;
14484;SDS011;7328;50.812;4.422;2022-07-11T08:01:45;7.43;;;5.57;;
14484;SDS011;7328;50.812;4.422;2022-07-11T08:04:12;8.47;;;5.97;;
14484;SDS011;7328;50.812;4.422;2022-07-11T08:06:38;5.27;;;4.77;;
14484;SDS011;7328;50.812;4.422;2022-07-11T08:09:05;10.93;;;5.50;;
14484;SDS011;7328;50.812;4.422;2022-07-11T08:11:31;4.67;;;3.97;;
14484;SDS011;7328;50.812;4.422;2022-07-11T08:13:58;6.57;;;4.33;;
14484;SDS011;7328;50.812;4.422;2022-07-11T08:16:24;5.67;;;4.50;;
14484;SDS011;7328;50.812;4.422;2022-07-11T08:18:50;4.87;;;4.47;;
14484;SDS011;7328;50.812;4.422;2022-07-11T08:21:18;5.93;;;3.60;;
14484;SDS011;7328;50.812;4.422;2022-07-11T08:23:44;4.10;;;3.80;;
14484;SDS011;7328;50.812;4.422;2022-07-11T08:26:10;3.53;;;2.90;;
14484;SDS011;7328;50.812;4.422;2022-07-11T08:28:35;5.87;;;3.30;;
14484;SDS011;7328;50.812;4.422;2022-07-11T08:31:01;2.37;;;2.17;;
14484;SDS011;7328;50.812;4.422;2022-07-11T08:33:27;5.37;;;2.30;;
14484;SDS011;7328;50.812;4.422;2022-07-11T08:35:53;3.63;;;3.27;;
14484;SDS011;7328;50.812;4.422;2022-07-11T08:38:18;3.73;;;2.80;;
14484;SDS011;7328;50.812;4.422;2022-07-11T08:40:44;7.07;;;3.57;;
14484;SDS011;7328;50.812;4.422;2022-07-11T08:43:13;4.83;;;2.63;;
14484;SDS011;7328;50.812;4.422;2022-07-11T08:45:40;8.97;;;4.40;;
14484;SDS011;7328;50.812;4.422;2022-07-11T08:48:07;4.60;;;3.20;;
14484;SDS011;7328;50.812;4.422;2022-07-11T08:50:36;4.43;;;3.80;;
14484;SDS011;7328;50.812;4.422;2022-07-11T08:53:03;4.23;;;3.80;;
14484;SDS011;7328;50.812;4.422;2022-07-11T08:55:30;5.90;;;3.83;;
14484;SDS011;7328;50.812;4.422;2022-07-11T08:57:56;5.33;;;3.67;;
14484;SDS011;7328;50.812;4.422;2022-07-11T09:00:22;5.47;;;3.73;;
14484;SDS011;7328;50.812;4.422;2022-07-11T09:02:48;3.93;;;2.90;;
14484;SDS011;7328;50.812;4.422;2022-07-11T09:05:15;4.03;;;2.87;;
14484;SDS011;7328;50.812;4.422;2022-07-11T09:07:44;3.40;;;3.10;;
14484;SDS011;7328;50.812;4.422;2022-07-11T09:10:12;4.57;;;3.70;;
14484;SDS011;7328;50.812;4.422;2022-07-11T09:15:37;3.70;;;3.30;;
14484;SDS011;7328;50.812;4.422;2022-07-11T09:18:05;3.07;;;2.87;;
14484;SDS011;7328;50.812;4.422;2022-07-11T09:20:52;4.47;;;2.63;;
14484;SDS011;7328;50.812;4.422;2022-07-11T09:23:40;5.83;;;3.10;;
14484;SDS011;7328;50.812;4.422;2022-07-11T09:26:28;7.63;;;4.47;;
14484;SDS011;7328;50.812;4.422;2022-07-11T09:29:02;4.10;;;2.83;;
14484;SDS011;7328;50.812;4.422;2022-07-11T09:31:30;4.30;;;3.93;;
14484;SDS011;7328;50.812;4.422;2022-07-11T09:33:58;4.27;;;3.43;;
14484;SDS011;7328;50.812;4.422;2022-07-11T09:36:38;8.37;;;3.47;;
14484;SDS011;7328;50.812;4.422;2022-07-11T09:39:06;5.53;;;3.33;;
14484;SDS011;7328;50.812;4.422;2022-07-11T09:41:34;3.10;;;2.90;;
14484;SDS011;7328;50.812;4.422;2022-07-11T09:46:58;2.90;;;2.63;;
14484;SDS011;7328;50.812;4.422;2022-07-11T09:49:32;3.37;;;3.07;;
14484;SDS011;7328;50.812;4.422;2022-07-11T09:52:09;3.40;;;2.90;;
14484;SDS011;7328;50.812;4.422;2022-07-11T09:57:38;4.80;;;2.63;;
14484;SDS011;7328;50.812;4.422;2022-07-11T10:00:11;3.10;;;2.67;;
14484;SDS011;7328;50.812;4.422;2022-07-11T10:02:38;5.97;;;3.47;;
14484;SDS011;7328;50.812;4.422;2022-07-11T10:05:06;4.40;;;4.03;;
14484;SDS011;7328;50.812;4.422;2022-07-11T10:07:32;2.67;;;2.53;;
14484;SDS011;7328;50.812;4.422;2022-07-11T10:09:59;7.73;;;3.33;;
14484;SDS011;7328;50.812;4.422;2022-07-11T10:12:26;4.37;;;3.07;;
14484;SDS011;7328;50.812;4.422;2022-07-11T10:14:54;4.93;;;3.43;;
14484;SDS011;7328;50.812;4.422;2022-07-11T10:20:08;2.70;;;2.60;;
14484;SDS011;7328;50.812;4.422;2022-07-11T10:25:56;3.00;;;2.70;;
14484;SDS011;7328;50.812;4.422;2022-07-11T10:31:22;3.07;;;2.77;;
14484;SDS011;7328;50.812;4.422;2022-07-11T10:34:00;3.73;;;3.43;;
14484;SDS011;7328;50.812;4.422;2022-07-11T10:36:30;4.60;;;3.23;;
14484;SDS011;7328;50.812;4.422;2022-07-11T10:39:16;2.80;;;2.60;;
14484;SDS011;7328;50.812;4.422;2022-07-11T10:41:43;3.90;;;3.10;;
14484;SDS011;7328;50.812;4.422;2022-07-11T10:44:12;4.83;;;2.60;;
14484;SDS011;7328;50.812;4.422;2022-07-11T10:46:38;3.47;;;3.27;;
14484;SDS011;7328;50.812;4.422;2022-07-11T11:09:02;3.27;;;3.07;;
14484;SDS011;7328;50.812;4.422;2022-07-11T11:16:51;5.27;;;4.67;;
14484;SDS011;7328;50.812;4.422;2022-07-11T11:22:17;2.20;;;2.10;;
14484;SDS011;7328;50.812;4.422;2022-07-11T11:24:44;8.53;;;7.70;;
14484;SDS011;7328;50.812;4.422;2022-07-11T11:27:15;2.97;;;2.77;;
14484;SDS011;7328;50.812;4.422;2022-07-11T11:29:47;2.87;;;2.67;;
14484;SDS011;7328;50.812;4.422;2022-07-11T11:32:17;3.50;;;3.27;;
14484;SDS011;7328;50.812;4.422;2022-07-11T11:34:43;2.50;;;2.30;;
14484;SDS011;7328;50.812;4.422;2022-07-11T11:37:09;3.03;;;2.83;;
14484;SDS011;7328;50.812;4.422;2022-07-11T11:39:36;3.73;;;3.53;;
14484;SDS011;7328;50.812;4.422;2022-07-11T11:42:15;4.17;;;3.10;;
14484;SDS011;7328;50.812;4.422;2022-07-11T11:47:15;3.67;;;3.40;;
14484;SDS011;7328;50.812;4.422;2022-07-11T11:49:42;3.30;;;3.10;;
14484;SDS011;7328;50.812;4.422;2022-07-11T11:52:08;4.27;;;3.87;;
14484;SDS011;7328;50.812;4.422;2022-07-11T11:54:37;4.50;;;3.33;;
14484;SDS011;7328;50.812;4.422;2022-07-11T11:57:08;4.37;;;4.17;;
14484;SDS011;7328;50.812;4.422;2022-07-11T11:59:36;5.23;;;3.37;;
14484;SDS011;7328;50.812;4.422;2022-07-11T12:02:03;2.83;;;2.67;;
14484;SDS011;7328;50.812;4.422;2022-07-11T12:04:30;3.30;;;3.10;;
14484;SDS011;7328;50.812;4.422;2022-07-11T12:07:01;4.23;;;3.93;;
14484;SDS011;7328;50.812;4.422;2022-07-11T12:09:28;4.72;;;4.43;;
14484;SDS011;7328;50.812;4.422;2022-07-11T12:12:17;5.68;;;4.90;;
14484;SDS011;7328;50.812;4.422;2022-07-11T12:15:03;5.60;;;4.80;;
14484;SDS011;7328;50.812;4.422;2022-07-11T12:17:32;5.20;;;4.82;;
14484;SDS011;7328;50.812;4.422;2022-07-11T12:19:58;5.60;;;5.22;;
14484;SDS011;7328;50.812;4.422;2022-07-11T12:22:23;5.25;;;4.82;;
14484;SDS011;7328;50.812;4.422;2022-07-11T12:24:51;6.72;;;4.95;;
14484;SDS011;7328;50.812;4.422;2022-07-11T12:27:21;4.85;;;4.45;;
14484;SDS011;7328;50.812;4.422;2022-07-11T12:29:48;5.20;;;4.80;;
14484;SDS011;7328;50.812;4.422;2022-07-11T12:32:20;4.88;;;4.57;;
14484;SDS011;7328;50.812;4.422;2022-07-11T12:34:48;5.65;;;5.22;;
14484;SDS011;7328;50.812;4.422;2022-07-11T12:37:18;5.78;;;5.47;;
14484;SDS011;7328;50.812;4.422;2022-07-11T12:39:52;6.75;;;6.15;;
14484;SDS011;7328;50.812;4.422;2022-07-11T12:44:56;5.65;;;5.15;;
14484;SDS011;7328;50.812;4.422;2022-07-11T12:47:35;4.80;;;4.60;;
14484;SDS011;7328;50.812;4.422;2022-07-11T12:52:45;5.05;;;4.65;;
14484;SDS011;7328;50.812;4.422;2022-07-11T12:55:29;5.38;;;4.97;;
14484;SDS011;7328;50.812;4.422;2022-07-11T13:00:37;5.65;;;4.75;;
14484;SDS011;7328;50.812;4.422;2022-07-11T13:03:05;5.55;;;5.15;;
14484;SDS011;7328;50.812;4.422;2022-07-11T13:05:50;5.57;;;5.15;;
14484;SDS011;7328;50.812;4.422;2022-07-11T13:08:26;5.38;;;4.97;;
14484;SDS011;7328;50.812;4.422;2022-07-11T13:11:14;5.18;;;4.78;;
14484;SDS011;7328;50.812;4.422;2022-07-11T13:13:42;4.63;;;4.30;;
14484;SDS011;7328;50.812;4.422;2022-07-11T13:16:09;5.05;;;4.60;;
14484;SDS011;7328;50.812;4.422;2022-07-11T13:18:36;4.05;;;3.85;;
14484;SDS011;7328;50.812;4.422;2022-07-11T13:21:02;5.45;;;5.05;;
14484;SDS011;7328;50.812;4.422;2022-07-11T13:23:29;4.72;;;4.43;;
14484;SDS011;7328;50.812;4.422;2022-07-11T13:25:56;4.20;;;3.90;;
14484;SDS011;7328;50.812;4.422;2022-07-11T13:28:22;4.22;;;3.92;;
14484;SDS011;7328;50.812;4.422;2022-07-11T13:30:51;4.60;;;4.20;;
14484;SDS011;7328;50.812;4.422;2022-07-11T13:33:18;3.40;;;3.20;;
14484;SDS011;7328;50.812;4.422;2022-07-11T13:35:45;3.83;;;3.63;;
14484;SDS011;7328;50.812;4.422;2022-07-11T13:38:12;3.90;;;3.70;;
14484;SDS011;7328;50.812;4.422;2022-07-11T13:40:39;4.20;;;3.92;;
14484;SDS011;7328;50.812;4.422;2022-07-11T13:43:05;3.95;;;3.63;;
14484;SDS011;7328;50.812;4.422;2022-07-11T13:45:31;5.20;;;3.85;;
14484;SDS011;7328;50.812;4.422;2022-07-11T13:47:56;3.78;;;3.58;;
14484;SDS011;7328;50.812;4.422;2022-07-11T13:50:23;3.50;;;3.30;;
14484;SDS011;7328;50.812;4.422;2022-07-11T13:52:49;3.88;;;3.67;;
14484;SDS011;7328;50.812;4.422;2022-07-11T13:55:16;3.53;;;3.28;;
14484;SDS011;7328;50.812;4.422;2022-07-11T13:57:42;3.65;;;3.35;;
14484;SDS011;7328;50.812;4.422;2022-07-11T14:00:09;3.10;;;2.90;;
14484;SDS011;7328;50.812;4.422;2022-07-11T14:02:35;3.33;;;3.20;;
14484;SDS011;7328;50.812;4.422;2022-07-11T14:05:01;2.88;;;2.53;;
14484;SDS011;7328;50.812;4.422;2022-07-11T14:07:27;3.55;;;3.33;;
14484;SDS011;7328;50.812;4.422;2022-07-11T14:09:53;3.72;;;3.53;;
14484;SDS011;7328;50.812;4.422;2022-07-11T14:12:19;3.40;;;3.30;;
14484;SDS011;7328;50.812;4.422;2022-07-11T14:14:45;4.60;;;4.20;;
14484;SDS011;7328;50.812;4.422;2022-07-11T14:17:11;3.97;;;3.78;;
14484;SDS011;7328;50.812;4.422;2022-07-11T14:19:37;4.40;;;4.00;;
14484;SDS011;7328;50.812;4.422;2022-07-11T14:22:04;3.80;;;3.60;;
14484;SDS011;7328;50.812;4.422;2022-07-11T14:24:34;4.32;;;4.13;;
14484;SDS011;7328;50.812;4.422;2022-07-11T14:27:00;4.60;;;4.40;;
14484;SDS011;7328;50.812;4.422;2022-07-11T14:29:26;4.45;;;4.20;;
14484;SDS011;7328;50.812;4.422;2022-07-11T14:31:52;3.72;;;3.55;;
14484;SDS011;7328;50.812;4.422;2022-07-11T14:34:22;4.47;;;3.47;;
14484;SDS011;7328;50.812;4.422;2022-07-11T14:36:51;3.25;;;3.15;;
14484;SDS011;7328;50.812;4.422;2022-07-11T14:39:19;4.18;;;3.88;;
14484;SDS011;7328;50.812;4.422;2022-07-11T14:41:44;4.55;;;4.28;;
14484;SDS011;7328;50.812;4.422;2022-07-11T14:44:14;4.65;;;4.45;;
14484;SDS011;7328;50.812;4.422;2022-07-11T14:46:43;5.18;;;4.50;;
14484;SDS011;7328;50.812;4.422;2022-07-11T14:49:12;4.03;;;3.67;;
14484;SDS011;7328;50.812;4.422;2022-07-11T14:51:38;4.45;;;4.25;;
14484;SDS011;7328;50.812;4.422;2022-07-11T14:54:04;4.80;;;4.53;;
14484;SDS011;7328;50.812;4.422;2022-07-11T14:56:30;6.47;;;5.80;;
14484;SDS011;7328;50.812;4.422;2022-07-11T14:59:00;5.25;;;4.85;;
14484;SDS011;7328;50.812;4.422;2022-07-11T15:01:30;5.50;;;4.40;;
14484;SDS011;7328;50.812;4.422;2022-07-11T15:03:56;4.30;;;4.10;;
14484;SDS011;7328;50.812;4.422;2022-07-11T15:06:22;4.03;;;3.72;;
14484;SDS011;7328;50.812;4.422;2022-07-11T15:09:08;4.03;;;3.75;;
14484;SDS011;7328;50.812;4.422;2022-07-11T15:11:52;4.55;;;4.20;;
14484;SDS011;7328;50.812;4.422;2022-07-11T15:14:37;4.15;;;3.95;;
14484;SDS011;7328;50.812;4.422;2022-07-11T15:17:03;4.40;;;4.05;;
14484;SDS011;7328;50.812;4.422;2022-07-11T15:19:29;4.45;;;4.13;;
14484;SDS011;7328;50.812;4.422;2022-07-11T15:21:54;4.35;;;4.15;;
14484;SDS011;7328;50.812;4.422;2022-07-11T15:24:20;4.43;;;4.13;;
14484;SDS011;7328;50.812;4.422;2022-07-11T15:26:46;4.57;;;4.35;;
14484;SDS011;7328;50.812;4.422;2022-07-11T15:29:14;3.90;;;3.60;;
14484;SDS011;7328;50.812;4.422;2022-07-11T15:31:40;3.38;;;3.25;;
14484;SDS011;7328;50.812;4.422;2022-07-11T15:34:06;4.72;;;4.32;;
14484;SDS011;7328;50.812;4.422;2022-07-11T15:36:32;4.10;;;3.80;;
14484;SDS011;7328;50.812;4.422;2022-07-11T15:38:58;4.57;;;4.35;;
14484;SDS011;7328;50.812;4.422;2022-07-11T15:41:23;4.30;;;4.00;;
14484;SDS011;7328;50.812;4.422;2022-07-11T15:43:49;5.20;;;4.80;;
14484;SDS011;7328;50.812;4.422;2022-07-11T15:46:16;4.60;;;4.40;;
14484;SDS011;7328;50.812;4.422;2022-07-11T15:48:42;3.72;;;3.38;;
14484;SDS011;7328;50.812;4.422;2022-07-11T15:51:08;3.70;;;3.50;;
14484;SDS011;7328;50.812;4.422;2022-07-11T15:53:33;3.28;;;3.08;;
14484;SDS011;7328;50.812;4.422;2022-07-11T15:56:03;4.07;;;3.88;;
14484;SDS011;7328;50.812;4.422;2022-07-11T15:58:29;4.00;;;3.80;;
14484;SDS011;7328;50.812;4.422;2022-07-11T16:01:00;3.53;;;3.33;;